Latest Coastal Weather Observations for Gold Coast Seaway

IDQ60701

Issued at 4:31 pm EST Monday 20 May 2019 (issued every 10 minutes, with the page automatically refreshed every 10 minutes)

About coastal observations | Map of coastal stations | Coastal observations for QLD | Marine services | Other Formats
Station Details ID: 040764 Name: GOLD COAST SEAWAY Lat: -27.94 Lon: 153.43 Height: 2.98 m
Data from the previous 72 hours. | See also: Recent months at Gold Coast Seaway
Date/Time
EST
Wind Sea
Height
m
Swell Vis
km
Cloud Weather Temp
°C
Press
hPa
Rain since
9am
mm
Dir  Spd
kts
Gust
kts
Height
m
Period
s
Dir
20/04:30pm S 6 7 - - - - - - - 20.0 1024.8 10.0
20/04:00pm S 9 11 - - - - - - - 20.3 1024.8 10.0
20/03:30pm SSE 9 12 - - - - - - - 20.8 1024.8 10.0
20/03:00pm SSE 7 9 - - - - - - - 20.9 1024.7 10.0
20/02:30pm SSE 7 9 - - - - - - - 20.9 1024.8 10.0
20/02:00pm S 8 10 - - - - - - - 20.2 1025.0 10.0
20/01:30pm SSE 14 18 - - - - - - - 20.6 1025.1 10.0
20/01:00pm SE 10 13 - - - - - - - 20.8 1025.5 10.0
20/12:30pm SE 11 15 - - - - - - - 20.3 1025.9 10.0
20/12:00pm SSE 15 19 - - - - - - Recent precip. 19.3 1026.2 10.0
20/11:30am SE 17 22 - - - - - - - 19.0 1026.7 10.0
20/11:00am SE 17 20 - - - - - - - 19.1 1026.9 9.8
20/10:30am SSE 14 19 - - - - - - - 18.7 1027.0 8.6
20/10:00am S 10 17 - - - - - - - 18.4 1027.5 5.2
20/09:30am S 10 16 - - - - - - - 18.9 1027.6 0.2
20/09:00am S 11 14 - - - - - - Recent precip. 18.2 1027.7 10.8
20/08:30am S 7 12 - - - - - - - 18.2 1027.5 10.8
20/08:00am S 9 11 - - - - - - - 18.0 1027.1 8.6
20/07:30am SSW 8 10 - - - - - - - 18.0 1026.7 7.6
20/07:00am S 8 10 - - - - - - - 17.7 1026.7 7.2
20/06:30am S 9 12 - - - - - - - 17.4 1026.4 6.8
20/06:00am SSW 6 9 - - - - - - Rain 17.4 1026.5 5.6
20/05:30am SW 7 9 - - - - - - - 17.3 1026.1 5.4
20/05:00am W 5 7 - - - - - - - 17.4 1026.1 5.4
20/04:30am S 8 11 - - - - - - - 17.6 1025.8 1.4
20/04:00am SSW 8 10 - - - - - - - 17.4 1025.7 1.0
20/03:30am SSW 7 10 - - - - - - - 17.5 1025.9 1.0
20/03:00am SSW 9 13 - - - - - - - 17.7 1025.9 1.0
20/02:30am SSW 7 10 - - - - - - - 17.8 1025.9 1.0
20/02:00am SSW 7 10 - - - - - - - 17.7 1025.7 1.0
20/01:30am SSW 8 11 - - - - - - - 17.7 1026.0 1.0
20/01:00am S 10 17 - - - - - - - 18.0 1026.2 1.0
20/12:30am SSW 8 10 - - - - - - - 17.9 1026.4 1.0
20/12:00am SSW 8 10 - - - - - - - 17.8 1026.7 1.0
 
Date/Time
EST
Wind Sea
Height
m
Swell Vis
km
Cloud Weather Temp
°C
Press
hPa
Rain since
9am
mm
Dir  Spd
kts
Gust
kts
Height
m
Period
s
Dir
19/11:30pm S 9 12 - - - - - - - 17.9 1027.1 1.0
19/11:00pm S 10 15 - - - - - - - 17.7 1026.9 1.0
19/10:30pm S 9 13 - - - - - - - 17.9 1027.2 0.8
19/10:00pm S 16 22 - - - - - - - 18.4 1027.1 0.4
19/09:30pm S 15 25 - - - - - - - 19.2 1027.2 0.2
19/09:29pm S 13 23 - - - - - - - 19.3 1027.2 0.2
19/09:00pm S 9 12 - - - - - - - 18.4 1027.2 0.2
19/08:30pm S 20 26 - - - - - - - 18.7 1027.2 0.2
19/08:00pm SSE 20 25 - - - - - - - 20.0 1027.3 0.2
19/07:30pm SSE 17 20 - - - - - - - 20.3 1026.9 0.2
19/07:00pm S 14 17 - - - - - - - 20.3 1026.7 0.2
19/06:30pm S 11 15 - - - - - - - 20.5 1026.3 0.2
19/06:00pm SSE 19 23 - - - - - - - 21.3 1026.0 0.2
19/05:30pm SSE 18 22 - - - - - - - 21.3 1025.7 0.2
19/05:00pm SE 19 24 - - - - - - - 21.7 1025.7 0.2
19/04:30pm SE 18 21 - - - - - - - 21.9 1025.7 0.2
19/04:00pm SSE 18 21 - - - - - - - 22.0 1025.7 0.2
19/03:30pm SSE 18 22 - - - - - - - 22.5 1025.7 0.2
19/03:00pm SSE 18 22 - - - - - - - 22.7 1025.8 0.2
19/02:30pm SSE 18 22 - - - - - - - 23.1 1025.8 0.2
19/02:00pm SSE 18 22 - - - - - - - 23.5 1025.7 0.2
19/01:30pm SSE 20 25 - - - - - - - 23.6 1025.8 0.2
19/01:00pm SSE 17 20 - - - - - - - 23.7 1026.1 0.2
19/12:30pm SSE 17 20 - - - - - - - 23.4 1026.6 0.2
19/12:00pm SSE 15 19 - - - - - - - 23.5 1026.9 0.2
19/11:30am SSE 17 21 - - - - - - - 23.0 1027.3 0.2
19/11:00am SSE 16 19 - - - - - - - 23.0 1027.7 0.2
19/10:30am S 17 21 - - - - - - - 22.5 1028.1 0.0
19/10:00am S 17 20 - - - - - - - 22.1 1028.1 0.0
19/09:30am S 15 18 - - - - - - - 21.7 1028.2 0.0
19/09:00am S 14 19 - - - - - - - 20.6 1028.1 3.0
19/08:30am S 8 12 - - - - - - - 19.7 1028.0 3.0
19/08:00am S 16 20 - - - - - - - 18.8 1027.8 3.0
19/07:30am SSE 12 17 - - - - - - - 18.2 1027.7 3.0
19/07:00am S 11 16 - - - - - - - 17.8 1027.6 3.0
19/06:30am WSW 4 5 - - - - - - - 16.9 1027.4 2.8
19/06:00am SW 4 5 - - - - - - - 17.2 1027.2 2.8
19/05:30am SSW 5 6 - - - - - - - 17.2 1026.9 2.8
19/05:00am SSE 8 10 - - - - - - - 17.4 1026.8 2.8
19/04:30am SSE 15 18 - - - - - - - 17.6 1026.7 2.4
19/04:00am S 12 17 - - - - - - - 17.3 1026.7 1.2
19/03:30am SSW 9 14 - - - - - - - 17.3 1026.5 1.0
19/03:00am S 11 15 - - - - - - - 17.0 1026.4 0.6
19/02:30am S 11 15 - - - - - - - 16.8 1026.3 0.6
19/02:00am S 18 23 - - - - - - - 17.5 1026.7 0.6
19/01:48am S 19 26 - - - - - - - 18.2 1026.8 0.6
19/01:30am S 12 15 - - - - - - - 17.2 1026.8 0.6
19/01:00am S 9 12 - - - - - - - 17.2 1027.1 0.6
19/12:30am S 10 15 - - - - - - - 17.2 1027.0 0.6
19/12:00am S 13 16 - - - - - - Recent precip. 17.4 1026.8 0.6
 
Date/Time
EST
Wind Sea
Height
m
Swell Vis
km
Cloud Weather Temp
°C
Press
hPa
Rain since
9am
mm
Dir  Spd
kts
Gust
kts
Height
m
Period
s
Dir
18/11:30pm S 19 23 - - - - - - - 18.3 1027.2 0.6
18/11:00pm SSE 17 21 - - - - - - - 19.1 1027.7 0.2
18/10:30pm S 12 17 - - - - - - - 19.0 1027.6 0.2
18/10:00pm S 9 14 - - - - - - - 18.6 1027.6 0.2
18/09:30pm S 10 13 - - - - - - - 18.3 1027.5 0.2
18/09:00pm SSW 10 14 - - - - - - - 18.3 1027.6 0.2
18/08:30pm S 11 14 - - - - - - - 18.5 1027.6 0.2
18/08:00pm S 10 14 - - - - - - - 19.1 1027.3 0.2
18/07:30pm S 9 14 - - - - - - - 18.9 1027.1 0.2
18/07:00pm S 9 14 - - - - - - - 19.0 1026.7 0.2
18/06:30pm S 10 15 - - - - - - - 19.2 1026.5 0.2
18/06:00pm S 12 17 - - - - - - - 19.9 1026.3 0.2
18/05:30pm SSE 17 20 - - - - - - - 20.7 1026.1 0.2
18/05:00pm SSE 18 22 - - - - - - - 21.0 1025.9 0.2
18/04:30pm SSE 19 22 - - - - - - - 21.5 1025.7 0.2
18/04:00pm SSE 18 22 - - - - - - - 22.4 1025.5 0.2
18/03:30pm SSE 19 23 - - - - - - - 21.8 1025.5 0.2
18/03:00pm SSE 18 22 - - - - - - - 22.8 1025.5 0.2
18/02:30pm SSE 17 21 - - - - - - - 23.1 1025.5 0.2
18/02:00pm SSE 17 20 - - - - - - - 23.6 1025.5 0.2
18/01:30pm SSE 18 22 - - - - - - - 23.5 1025.6 0.2
18/01:00pm SSE 19 22 - - - - - - - 23.3 1025.8 0.2
18/12:30pm SSE 18 21 - - - - - - - 22.2 1026.2 0.2
18/12:00pm SSE 16 20 - - - - - - - 22.5 1026.7 0.2
18/11:30am SSE 15 19 - - - - - - - 22.6 1027.2 0.2
18/11:00am SSE 16 19 - - - - - - - 22.7 1027.6 0.2
18/10:30am SSE 17 20 - - - - - - - 22.7 1027.9 0.2
18/10:00am S 16 19 - - - - - - - 21.8 1027.9 0.2
18/09:30am S 15 18 - - - - - - - 21.3 1028.0 0.0
18/09:00am S 9 16 - - - - - - - 20.8 1028.1 1.8
18/08:30am SSW 7 9 - - - - - - - 19.7 1027.9 1.8
18/08:00am S 6 8 - - - - - - - 18.9 1027.6 1.8
18/07:30am S 8 11 - - - - - - - 18.3 1027.3 1.8
18/07:00am S 9 13 - - - - - - - 17.8 1027.0 1.8
18/06:30am S 13 18 - - - - - - - 17.8 1026.8 1.8
18/06:00am SSW 8 14 - - - - - - - 17.5 1026.4 1.8
18/05:30am S 5 8 - - - - - - - 17.1 1026.5 1.8
18/05:00am S 3 6 - - - - - - - 18.0 1026.1 1.8
18/04:30am SW 4 5 - - - - - - - 18.3 1025.9 1.8
18/04:00am SE 7 9 - - - - - - - 18.5 1025.9 1.8
18/03:30am SSW 5 8 - - - - - - - 17.8 1026.2 1.8
18/03:00am SW 5 7 - - - - - - - 17.9 1026.0 1.8
18/02:30am SSW 7 10 - - - - - - - 17.9 1025.9 1.8
18/02:00am SSW 7 9 - - - - - - - 17.6 1026.1 1.8
18/01:30am SSW 7 8 - - - - - - - 17.6 1026.2 1.8
18/01:00am SSW 6 7 - - - - - - - 17.7 1026.3 1.8
18/12:30am SSW 8 10 - - - - - - - 18.0 1026.5 1.8
18/12:00am SW 5 7 - - - - - - - 18.2 1026.5 1.8
 
Date/Time
EST
Wind Sea
Height
m
Swell Vis
km
Cloud Weather Temp
°C
Press
hPa
Rain since
9am
mm
Dir  Spd
kts
Gust
kts
Height
m
Period
s
Dir
17/11:30pm SW 5 6 - - - - - - - 18.1 1026.7 1.8
17/11:00pm S 5 6 - - - - - - - 18.0 1026.8 1.8
17/10:30pm SW 5 6 - - - - - - - 18.4 1026.7 1.6
17/10:00pm SW 4 6 - - - - - - - 18.4 1026.8 1.6
17/09:30pm SSW 5 7 - - - - - - - 18.5 1026.7 1.6
17/09:00pm S 8 10 - - - - - - - 19.1 1026.8 1.6
17/08:30pm SSE 12 15 - - - - - - - 19.1 1026.5 1.6
17/08:00pm WSW 3 6 - - - - - - - 18.5 1026.3 1.6
17/07:30pm WSW 5 6 - - - - - - - 18.5 1026.0 1.6
17/07:00pm SSW 6 9 - - - - - - - 18.4 1025.8 1.6
17/06:30pm S 10 16 - - - - - - - 19.1 1025.6 1.4
17/06:00pm SE 9 17 - - - - - - Recent precip. 19.6 1025.4 1.0
17/05:30pm SE 8 10 - - - - - - - 20.2 1024.9 0.6
17/05:00pm SE 17 20 - - - - - - - 20.2 1024.5 0.6

Other formats

Comma delimited format used in spreadsheet applications
http://www.bom.gov.au/fwo/IDQ60701/IDQ60701.94580.axf

JavaScript Object Notation format (JSON) in row-major order
http://www.bom.gov.au/fwo/IDQ60701/IDQ60701.94580.json

Data quality

Most of these data are generated automatically and are frequently updated. Quality checks on data are not normally performed. It is possible for incorrect values to appear. Refer to information at About Latest Weather Observations and please check the disclaimer before using these data.